Time;durP1;ratioP1;P1;durP2;ratioP2;P2;SDS_P1;SDS_P2;PMS_P1;PMS_P2;Temp;Humidity;BMP_temperature;BMP_pressure;BME280_temperature;BME280_humidity;BME280_pressure;Samples;Min_cycle;Max_cycle;Signal;HPM_P1;HPM_P2
2022/11/23 06:24:27;;;;;;;;;1.75;1.50;;;;;17.36;50.24;99425.31;5077149;27;45702;-73
2022/11/23 06:26:52;;;;;;;;;1.00;1.00;;;;;17.71;50.47;99425.31;5055741;28;45395;-71
2022/11/23 06:29:18;;;;;;;;;0.75;0.00;;;;;18.20;50.79;99426.47;5066357;28;45746;-71
2022/11/23 06:31:44;;;;;;;;;1.50;1.00;;;;;18.78;50.87;99413.09;5067070;28;45510;-70
2022/11/23 06:34:09;;;;;;;;;0.67;0.00;;;;;19.35;50.87;99410.47;5066813;28;50928;-71
2022/11/23 06:36:35;;;;;;;;;2.00;1.00;;;;;19.88;50.71;99405.34;5057681;28;45477;-71
2022/11/23 06:39:00;;;;;;;;;1.00;0.67;;;;;20.36;50.43;99412.50;5066436;27;45452;-71
2022/11/23 06:41:25;;;;;;;;;1.00;1.00;;;;;20.82;50.44;99409.94;5060591;28;47779;-70
2022/11/23 06:43:50;;;;;;;;;1.00;1.00;;;;;21.22;49.63;99409.75;5061637;28;45378;-71
2022/11/23 06:46:16;;;;;;;;;1.00;1.00;;;;;21.55;49.28;99402.09;5064417;28;49070;-72
2022/11/23 06:48:46;;;;;;;;;2.00;0.67;;;;;21.95;49.67;99399.09;5067999;27;45640;-71
2022/11/23 06:51:11;;;;;;;;;1.33;1.33;;;;;22.29;49.28;99396.75;5069647;28;45406;-75
2022/11/23 06:53:37;;;;;;;;;0.67;0.67;;;;;22.59;48.49;99388.53;5068360;28;46519;-72
2022/11/23 06:56:02;;;;;;;;;3.33;2.67;;;;;22.83;48.53;99390.97;5068212;28;45475;-71
2022/11/23 06:58:28;;;;;;;;;5.67;2.00;;;;;23.03;47.99;99391.13;5062786;28;45418;-71
2022/11/23 07:00:53;;;;;;;;;3.00;2.00;;;;;23.19;47.87;99392.69;5062222;28;45454;-72
2022/11/23 07:03:23;;;;;;;;;3.00;1.00;;;;;23.33;47.51;99381.97;5069018;28;46107;-71
2022/11/23 07:05:49;;;;;;;;;2.33;2.33;;;;;23.46;47.51;99386.63;5065382;28;45411;-71
2022/11/23 07:08:14;;;;;;;;;2.33;2.33;;;;;23.55;47.28;99383.53;5070460;28;45403;-71
2022/11/23 07:10:40;;;;;;;;;0.00;0.00;;;;;23.64;47.16;99388.78;5069554;28;45813;-72
2022/11/23 07:13:07;;;;;;;;;2.00;2.00;;;;;23.72;47.14;99383.19;5058783;28;45596;-71
2022/11/23 07:15:32;;;;;;;;;0.00;0.00;;;;;23.80;47.18;99380.28;5057727;27;45643;-72
2022/11/23 07:17:58;;;;;;;;;1.00;0.33;;;;;23.91;46.94;99388.88;5057700;28;45490;-73
2022/11/23 07:20:23;;;;;;;;;1.00;1.00;;;;;24.00;46.99;99381.38;5065903;27;45512;-72
2022/11/23 07:23:00;;;;;;;;;2.00;0.67;;;;;24.09;46.67;99393.75;5069198;28;46058;-71
2022/11/23 07:25:27;;;;;;;;;1.67;1.00;;;;;24.16;46.65;99391.88;5068071;27;45728;-72
2022/11/23 07:27:56;;;;;;;;;1.00;1.00;;;;;24.26;46.37;99385.22;5056783;28;45411;-72
2022/11/23 07:30:22;;;;;;;;;1.33;1.33;;;;;24.35;46.24;99386.69;5065687;28;45488;-72
2022/11/23 07:32:47;;;;;;;;;2.67;1.00;;;;;24.45;46.06;99389.00;5069632;28;46379;-72
2022/11/23 07:35:13;;;;;;;;;0.67;0.67;;;;;24.52;46.29;99389.81;5056628;28;55672;-72
2022/11/23 07:37:38;;;;;;;;;2.33;1.00;;;;;24.60;46.02;99386.91;5053813;28;45966;-71
2022/11/23 07:40:04;;;;;;;;;0.00;0.00;;;;;24.68;45.74;99390.47;5052478;28;50469;-72
2022/11/23 07:42:29;;;;;;;;;1.00;1.00;;;;;24.69;45.54;99392.16;5055820;28;46204;-71
2022/11/23 07:44:55;;;;;;;;;1.67;1.67;;;;;24.77;45.70;99391.91;5049490;28;55571;-71
2022/11/23 07:47:20;;;;;;;;;1.00;1.00;;;;;24.81;45.55;99395.88;5046068;28;45489;-71
2022/11/23 07:49:45;;;;;;;;;1.00;1.00;;;;;24.84;45.37;99392.78;5042499;28;45434;-71
2022/11/23 07:52:11;;;;;;;;;1.33;1.33;;;;;24.89;45.65;99404.88;5054733;28;57449;-71
2022/11/23 07:54:36;;;;;;;;;1.00;1.00;;;;;24.94;45.40;99400.50;5054103;28;45699;-73
2022/11/23 07:57:01;;;;;;;;;0.33;0.33;;;;;24.99;45.82;99392.56;5056869;28;45399;-73
2022/11/23 07:59:27;;;;;;;;;0.33;0.33;;;;;25.05;45.17;99393.59;5053319;28;45410;-72
2022/11/23 08:01:52;;;;;;;;;1.33;1.33;;;;;25.13;45.20;99389.81;5056090;28;46189;-72
2022/11/23 08:04:17;;;;;;;;;0.67;0.67;;;;;25.20;45.13;99385.22;5051878;28;52422;-72
2022/11/23 08:06:43;;;;;;;;;0.00;0.00;;;;;25.26;45.13;99397.13;5055012;28;48099;-79
2022/11/23 08:09:08;;;;;;;;;0.33;0.33;;;;;25.32;45.26;99393.53;5052909;28;50601;-75
2022/11/23 08:11:33;;;;;;;;;1.00;1.00;;;;;25.37;44.82;99392.88;5049305;28;45380;-74
2022/11/23 08:13:58;;;;;;;;;1.00;1.00;;;;;25.44;45.08;99396.44;5047841;28;45431;-75
2022/11/23 08:16:24;;;;;;;;;0.00;0.00;;;;;25.49;44.97;99388.47;5050242;28;49798;-74
2022/11/23 08:18:49;;;;;;;;;0.67;0.67;;;;;25.51;44.69;99386.34;5049965;28;53050;-78
2022/11/23 08:21:15;;;;;;;;;1.00;1.00;;;;;25.51;44.79;99386.34;5046347;28;45695;-73
2022/11/23 08:23:40;;;;;;;;;1.00;1.00;;;;;25.48;44.06;99383.25;5053935;28;45542;-73
2022/11/23 08:26:06;;;;;;;;;0.00;0.00;;;;;25.44;44.24;99373.84;5050597;28;47492;-72
2022/11/23 08:28:31;;;;;;;;;0.00;0.00;;;;;25.37;44.34;99363.84;5049232;28;45418;-72
2022/11/23 08:30:57;;;;;;;;;1.00;1.00;;;;;25.35;43.88;99373.25;5054144;28;46179;-73
2022/11/23 08:33:22;;;;;;;;;0.67;0.67;;;;;25.30;43.70;99383.94;5054952;28;45524;-73
2022/11/23 08:35:47;;;;;;;;;1.67;1.67;;;;;25.24;44.17;99366.59;5054682;28;45394;-73
2022/11/23 08:38:13;;;;;;;;;2.00;0.00;;;;;25.24;43.98;99363.88;5053302;28;50720;-73
2022/11/23 08:40:38;;;;;;;;;0.33;0.33;;;;;25.24;43.83;99351.16;5050808;28;46209;-75
2022/11/23 08:43:04;;;;;;;;;2.00;2.00;;;;;25.26;43.85;99343.63;5053501;28;45473;-76
2022/11/23 08:45:29;;;;;;;;;2.00;2.00;;;;;25.21;43.38;99320.88;5056398;28;45431;-75
2022/11/23 08:47:59;;;;;;;;;1.00;1.00;;;;;25.23;43.50;99316.06;5054762;28;53776;-74
2022/11/23 08:50:25;;;;;;;;;2.33;1.00;;;;;25.20;43.52;99305.63;5050031;28;46335;-76
2022/11/23 08:52:57;;;;;;;;;1.00;1.00;;;;;25.16;43.65;99299.81;5053045;28;45662;-76
2022/11/23 08:55:24;;;;;;;;;1.00;1.00;;;;;25.12;43.20;99302.13;5055735;28;45384;-76
2022/11/23 08:57:50;;;;;;;;;3.67;3.00;;;;;25.08;43.40;99309.03;5054999;28;45461;-75
2022/11/23 09:00:15;;;;;;;;;1.67;0.00;;;;;25.04;43.17;99290.66;5052355;28;46053;-75
2022/11/23 09:02:40;;;;;;;;;1.00;1.00;;;;;25.05;43.28;99297.75;5047258;28;45476;-75
2022/11/23 09:05:06;;;;;;;;;0.33;0.33;;;;;25.03;43.44;99314.25;5049980;28;45721;-75
2022/11/23 09:07:31;;;;;;;;;3.00;1.33;;;;;25.05;43.01;99316.75;5054287;28;45481;-75
2022/11/23 09:09:57;;;;;;;;;1.33;1.33;;;;;25.05;43.24;99314.06;5053645;28;46240;-75
2022/11/23 09:12:22;;;;;;;;;1.00;1.00;;;;;25.04;43.30;99304.22;5054336;28;45457;-75
2022/11/23 09:14:47;;;;;;;;;0.67;0.67;;;;;25.04;43.26;99296.91;5055322;28;45378;-75
2022/11/23 09:17:13;;;;;;;;;1.67;1.33;;;;;25.06;43.10;99289.38;5052851;28;45550;-76
2022/11/23 09:19:38;;;;;;;;;2.33;2.33;;;;;25.09;43.33;99290.88;5053738;28;51070;-75
2022/11/23 09:22:03;;;;;;;;;0.00;0.00;;;;;25.11;43.39;99277.91;5052794;28;55838;-76
2022/11/23 09:24:29;;;;;;;;;2.00;1.33;;;;;25.13;43.47;99283.94;5049141;28;45410;-75
2022/11/23 09:26:55;;;;;;;;;0.00;0.00;;;;;25.17;43.38;99293.31;5054797;28;45759;-75
2022/11/23 09:29:20;;;;;;;;;1.00;1.00;;;;;25.21;43.23;99285.56;5054722;28;46084;-76
2022/11/23 09:31:45;;;;;;;;;1.33;1.33;;;;;25.25;43.32;99287.66;5054367;28;45676;-77
2022/11/23 09:34:14;;;;;;;;;4.00;2.00;;;;;25.29;43.11;99287.22;5052114;28;45375;-75
2022/11/23 09:36:40;;;;;;;;;1.00;1.00;;;;;25.31;42.98;99296.00;5040184;28;45334;-74
2022/11/23 09:39:05;;;;;;;;;0.00;0.00;;;;;25.32;43.35;99289.50;5049270;28;45982;-75
2022/11/23 09:41:39;;;;;;;;;0.33;0.33;;;;;25.33;43.11;99277.59;5051914;28;45511;-76
2022/11/23 09:44:38;;;;;;;;;3.00;0.67;;;;;25.34;43.28;99288.22;5044413;28;46394;-74
2022/11/23 09:47:13;;;;;;;;;4.33;2.67;;;;;25.35;43.01;99279.06;5054815;28;45454;-73
2022/11/23 09:49:58;;;;;;;;;1.33;1.33;;;;;25.37;42.75;99281.53;5042596;28;46351;-74
2022/11/23 09:52:24;;;;;;;;;1.00;1.00;;;;;25.38;43.47;99285.94;5042932;28;45372;-73
2022/11/23 09:54:54;;;;;;;;;2.00;1.00;;;;;25.37;43.37;99282.38;5049747;28;45523;-73
2022/11/23 09:57:25;;;;;;;;;0.33;0.33;;;;;25.36;43.25;99282.59;5049274;28;45562;-73
2022/11/23 09:59:58;;;;;;;;;4.33;1.00;;;;;25.37;43.32;99273.38;5052191;28;46062;-73
2022/11/23 10:02:27;;;;;;;;;2.33;1.00;;;;;25.37;43.34;99259.81;5041833;28;45428;-73
2022/11/23 10:04:54;;;;;;;;;1.00;1.00;;;;;25.36;43.21;99269.84;5040455;28;45534;-73
2022/11/23 10:07:26;;;;;;;;;2.00;2.00;;;;;25.35;43.01;99268.19;5062762;28;45486;-73
2022/11/23 10:09:54;;;;;;;;;0.33;0.33;;;;;25.35;42.89;99270.91;5036159;28;45635;-74
2022/11/23 10:12:56;;;;;;;;;2.00;2.00;;;;;25.34;43.18;99255.66;5038355;28;45400;-75
2022/11/23 10:15:43;;;;;;;;;2.00;0.00;;;;;25.35;42.90;99267.34;5040938;28;45396;-72
2022/11/23 10:18:33;;;;;;;;;1.00;1.00;;;;;25.35;43.06;99272.78;5051109;28;45305;-73
2022/11/23 10:21:25;;;;;;;;;2.00;1.00;;;;;25.34;43.15;99282.00;5049150;28;45482;-75
2022/11/23 10:23:54;;;;;;;;;4.33;1.00;;;;;25.32;42.71;99295.78;5051672;28;45570;-74
2022/11/23 10:26:26;;;;;;;;;2.00;2.00;;;;;25.33;42.72;99285.72;5046232;28;45512;-74
2022/11/23 10:28:54;;;;;;;;;0.33;0.00;;;;;25.31;43.16;99294.13;5053657;28;45433;-74
2022/11/23 10:31:22;;;;;;;;;2.67;1.33;;;;;25.32;42.95;99303.06;5053133;28;46261;-73
2022/11/23 10:34:03;;;;;;;;;1.33;0.00;;;;;25.30;42.56;99300.56;5051872;28;45775;-73
2022/11/23 10:36:28;;;;;;;;;1.00;0.67;;;;;25.30;42.93;99302.47;5053360;28;45399;-73
2022/11/23 10:38:58;;;;;;;;;0.33;0.33;;;;;25.32;43.07;99308.50;5053439;28;45504;-73
2022/11/23 10:41:24;;;;;;;;;0.00;0.00;;;;;25.31;42.89;99304.97;5051600;28;46279;-73
2022/11/23 10:44:08;;;;;;;;;2.33;2.33;;;;;25.34;42.86;99314.56;5053631;28;45419;-74
2022/11/23 10:46:33;;;;;;;;;1.67;1.33;;;;;25.35;42.58;99308.94;5051469;28;45657;-74
2022/11/23 10:49:18;;;;;;;;;1.00;1.00;;;;;25.37;42.73;99316.84;5052747;28;45334;-73
2022/11/23 10:51:56;;;;;;;;;1.00;1.00;;;;;25.37;42.95;99308.69;5047149;28;46042;-73
2022/11/23 10:54:28;;;;;;;;;2.00;0.00;;;;;25.37;43.16;99304.09;5042911;28;45570;-72
2022/11/23 10:56:54;;;;;;;;;2.00;1.00;;;;;25.40;42.96;99308.28;5044060;28;45247;-73
2022/11/23 10:59:33;;;;;;;;;1.00;1.00;;;;;25.45;42.95;99302.19;5051306;28;45584;-73
2022/11/23 11:02:17;;;;;;;;;0.00;0.00;;;;;25.50;43.16;99286.91;5051930;28;45534;-73
2022/11/23 11:04:44;;;;;;;;;2.00;0.00;;;;;25.56;43.45;99297.97;5047126;28;45749;-74
2022/11/23 11:07:19;;;;;;;;;3.00;1.00;;;;;25.62;42.98;99300.66;5053581;28;45387;-74
2022/11/23 11:09:50;;;;;;;;;0.33;0.33;;;;;25.68;43.06;99307.13;5053808;28;45401;-85
2022/11/23 11:12:18;;;;;;;;;1.00;1.00;;;;;25.71;42.84;99306.66;5047506;28;45918;-75
2022/11/23 11:15:10;;;;;;;;;1.33;0.33;;;;;25.77;42.77;99304.97;5066910;28;45533;-78
2022/11/23 11:17:36;;;;;;;;;1.00;1.00;;;;;25.83;42.55;99306.00;5060547;28;45667;-76
2022/11/23 11:20:32;;;;;;;;;3.33;1.00;;;;;25.87;42.96;99301.78;5056667;28;45395;-77
2022/11/23 11:23:13;;;;;;;;;0.00;0.00;;;;;25.89;42.78;99316.81;5049096;28;45452;-76
2022/11/23 11:25:39;;;;;;;;;2.00;2.00;;;;;25.94;42.50;99321.59;5054969;28;45458;-76
2022/11/23 11:28:20;;;;;;;;;1.00;1.00;;;;;25.96;42.43;99324.09;5057059;28;45577;-76
2022/11/23 11:31:14;;;;;;;;;1.00;1.00;;;;;25.98;42.74;99327.41;5051394;28;45360;-76
2022/11/23 11:33:57;;;;;;;;;2.00;0.00;;;;;25.92;42.22;99327.25;5051499;28;46334;-76
2022/11/23 11:36:31;;;;;;;;;0.67;0.00;;;;;25.91;42.74;99338.31;5044756;28;45459;-75
2022/11/23 11:39:01;;;;;;;;;2.00;0.00;;;;;25.90;42.11;99340.22;5054564;28;46646;-80
2022/11/23 11:41:28;;;;;;;;;1.33;1.33;;;;;25.91;42.57;99341.03;5050905;28;45379;-74
2022/11/23 11:44:06;;;;;;;;;1.00;1.00;;;;;25.94;42.19;99356.94;5050064;28;46372;-76
2022/11/23 11:46:48;;;;;;;;;1.00;1.00;;;;;25.97;42.17;99355.66;5052487;28;45356;-76
2022/11/23 11:49:25;;;;;;;;;3.00;1.00;;;;;25.97;42.68;99351.06;5052427;28;45497;-76
2022/11/23 11:52:11;;;;;;;;;2.00;2.00;;;;;26.05;42.36;99349.97;5055119;28;45522;-75
2022/11/23 11:54:52;;;;;;;;;0.67;0.00;;;;;26.13;42.63;99357.88;5051340;28;46026;-77
2022/11/23 11:57:22;;;;;;;;;3.00;2.67;;;;;26.15;42.52;99357.63;5050518;28;45496;-77
2022/11/23 11:59:52;;;;;;;;;1.67;1.67;;;;;26.15;42.40;99358.47;5048988;28;45461;-77
2022/11/23 12:02:19;;;;;;;;;2.00;2.00;;;;;26.17;41.92;99366.41;5052978;28;45506;-77
2022/11/23 12:05:06;;;;;;;;;2.00;0.00;;;;;26.16;42.10;99370.19;5054546;28;46109;-77
2022/11/23 12:07:34;;;;;;;;;0.67;0.67;;;;;26.17;42.31;99369.94;5043946;28;45765;-77
2022/11/23 12:10:08;;;;;;;;;2.00;0.00;;;;;26.17;42.30;99377.28;5047142;28;45497;-76
2022/11/23 12:12:35;;;;;;;;;1.00;1.00;;;;;26.18;42.37;99378.94;5053249;28;45460;-78
2022/11/23 12:15:01;;;;;;;;;1.00;0.33;;;;;26.18;41.79;99384.38;5051055;28;45932;-77
2022/11/23 12:18:03;;;;;;;;;1.00;1.00;;;;;26.20;41.72;99398.59;5048301;28;45406;-77
2022/11/23 12:20:45;;;;;;;;;0.67;0.67;;;;;26.20;42.31;99400.47;5049237;28;45484;-77
2022/11/23 12:23:24;;;;;;;;;1.00;1.00;;;;;26.22;42.35;99401.09;5056148;28;45455;-78
2022/11/23 12:26:11;;;;;;;;;1.67;1.67;;;;;26.24;41.79;99404.44;5044892;28;48509;-77
2022/11/23 12:28:45;;;;;;;;;0.33;0.33;;;;;26.34;42.06;99406.69;5051800;28;45602;-77
2022/11/23 12:31:26;;;;;;;;;0.67;0.67;;;;;26.39;42.04;99410.41;5055540;28;45394;-80
2022/11/23 12:34:10;;;;;;;;;1.00;1.00;;;;;26.47;42.20;99408.47;5041934;28;45673;-78
2022/11/23 12:37:10;;;;;;;;;1.00;1.00;;;;;26.54;41.73;99421.00;5054684;28;45482;-78
2022/11/23 12:40:21;;;;;;;;;0.33;0.33;;;;;26.57;41.94;99430.59;5051335;28;45432;-77
2022/11/23 12:42:52;;;;;;;;;1.00;1.00;;;;;26.58;42.38;99421.38;5052529;28;45754;-74
2022/11/23 12:45:49;;;;;;;;;0.00;0.00;;;;;26.59;42.15;99436.66;5054634;28;45311;-73
2022/11/23 12:48:33;;;;;;;;;1.67;1.67;;;;;26.60;41.73;99437.50;5038609;28;46125;-76
2022/11/23 12:51:04;;;;;;;;;1.67;1.00;;;;;26.59;41.62;99455.69;5053120;28;45345;-76
2022/11/23 12:53:50;;;;;;;;;1.00;1.00;;;;;26.58;42.22;99460.28;5046132;28;45835;-76
2022/11/23 12:56:20;;;;;;;;;0.33;0.33;;;;;26.58;42.14;99456.75;5043342;28;45423;-76
2022/11/23 12:58:49;;;;;;;;;3.00;2.00;;;;;26.56;41.73;99456.97;5051951;28;45498;-76
2022/11/23 13:01:29;;;;;;;;;2.33;2.33;;;;;26.55;42.11;99468.91;5048772;28;45496;-76
2022/11/23 13:04:07;;;;;;;;;1.00;0.67;;;;;26.55;41.74;99484.38;5050861;28;45494;-77
2022/11/23 13:06:54;;;;;;;;;1.00;1.00;;;;;26.54;42.16;99491.75;5051806;28;45657;-77
2022/11/23 13:09:31;;;;;;;;;0.00;0.00;;;;;26.61;41.76;99488.97;5050805;28;46201;-76
2022/11/23 13:12:03;;;;;;;;;0.00;0.00;;;;;26.72;41.91;99503.75;5048600;28;45788;-75
2022/11/23 13:14:52;;;;;;;;;1.00;1.00;;;;;26.83;42.29;99516.66;5050302;28;45557;-77
2022/11/23 13:17:41;;;;;;;;;0.00;0.00;;;;;26.91;42.15;99515.56;5050143;28;45744;-76
2022/11/23 13:20:37;;;;;;;;;0.67;0.67;;;;;26.99;42.06;99521.81;5045773;28;46278;-76
2022/11/23 13:23:05;;;;;;;;;2.33;1.33;;;;;27.04;41.63;99521.97;5046437;28;45799;-76
2022/11/23 13:25:31;;;;;;;;;2.00;2.00;;;;;27.07;41.53;99529.69;5049763;28;45534;-77
2022/11/23 13:28:01;;;;;;;;;1.67;1.67;;;;;27.09;41.42;99535.75;5048133;28;45384;-77
2022/11/23 13:30:32;;;;;;;;;0.67;0.67;;;;;27.12;41.23;99538.03;5050482;28;46220;-76
2022/11/23 13:33:22;;;;;;;;;1.00;1.00;;;;;27.18;41.87;99548.03;5049472;28;45719;-76
2022/11/23 13:35:52;;;;;;;;;1.00;1.00;;;;;27.25;41.74;99547.16;5053906;28;45417;-76
2022/11/23 13:38:23;;;;;;;;;1.00;1.00;;;;;27.28;41.79;99561.16;5055502;28;45381;-76
2022/11/23 13:40:49;;;;;;;;;0.33;0.33;;;;;27.30;41.23;99564.50;5052122;28;46285;-76
2022/11/23 13:43:16;;;;;;;;;2.00;0.33;;;;;27.29;41.21;99565.56;5045749;28;45441;-76
2022/11/23 13:45:42;;;;;;;;;1.67;1.00;;;;;27.31;41.14;99581.69;5054144;28;45283;-76
2022/11/23 13:48:07;;;;;;;;;1.00;1.00;;;;;27.29;40.76;99584.63;5055259;28;45712;-76
2022/11/23 13:50:35;;;;;;;;;0.33;0.33;;;;;27.27;41.44;99585.91;5054166;28;45992;-76
2022/11/23 13:53:02;;;;;;;;;1.00;1.00;;;;;27.25;41.68;99597.00;5047620;28;45353;-76
2022/11/23 13:55:34;;;;;;;;;0.00;0.00;;;;;27.25;41.27;99599.72;5052744;28;45588;-76
2022/11/23 13:58:25;;;;;;;;;0.67;0.67;;;;;27.20;40.81;99613.19;5048089;28;45644;-76
2022/11/23 14:00:54;;;;;;;;;1.67;0.33;;;;;27.16;41.33;99620.13;5047783;28;45903;-76
2022/11/23 14:03:41;;;;;;;;;0.00;0.00;;;;;27.14;41.29;99633.94;5054093;28;45561;-76
2022/11/23 14:06:27;;;;;;;;;2.00;0.00;;;;;27.14;40.92;99631.22;5048867;28;45609;-76
2022/11/23 14:09:07;;;;;;;;;0.00;0.00;;;;;27.14;40.87;99639.41;5036880;28;45391;-76
2022/11/23 14:12:08;;;;;;;;;0.00;0.00;;;;;27.13;40.94;99650.53;5054994;28;45417;-76
2022/11/23 14:15:10;;;;;;;;;1.00;1.00;;;;;27.12;40.66;99660.59;5048357;28;45393;-76
2022/11/23 14:17:48;;;;;;;;;1.00;1.00;;;;;27.06;41.06;99684.06;5043266;28;45653;-75
2022/11/23 14:20:40;;;;;;;;;2.00;2.00;;;;;26.96;40.49;99691.88;5042865;28;45544;-80
2022/11/23 14:23:24;;;;;;;;;1.00;1.00;;;;;26.88;40.59;99690.22;5049444;28;46108;-80
2022/11/23 14:25:56;;;;;;;;;1.00;1.00;;;;;26.82;40.69;99704.69;5044621;28;45268;-80
2022/11/23 14:28:49;;;;;;;;;1.00;1.00;;;;;26.77;40.71;99705.34;5051899;28;45373;-80
2022/11/23 14:31:26;;;;;;;;;1.00;1.00;;;;;26.75;41.40;99706.59;5049020;28;45702;-80
2022/11/23 14:34:12;;;;;;;;;2.00;1.00;;;;;26.71;41.24;99730.69;5054639;28;46227;-79
2022/11/23 14:37:03;;;;;;;;;0.00;0.00;;;;;26.71;41.58;99744.31;5053947;28;45364;-79
2022/11/23 14:39:47;;;;;;;;;1.00;1.00;;;;;26.70;40.84;99739.91;5043169;28;45557;-78
2022/11/23 14:42:26;;;;;;;;;1.00;1.00;;;;;26.67;41.15;99751.22;5052577;28;45390;-77
2022/11/23 14:44:52;;;;;;;;;0.00;0.00;;;;;26.65;41.49;99754.16;5052182;28;46393;-77
2022/11/23 14:47:27;;;;;;;;;1.00;1.00;;;;;26.64;40.94;99762.56;5048533;28;45502;-81
2022/11/23 14:49:53;;;;;;;;;2.00;1.33;;;;;26.63;41.44;99767.16;5044568;28;45671;-77
2022/11/23 14:52:22;;;;;;;;;3.00;1.67;;;;;26.62;41.67;99767.34;5043525;28;45538;-77
2022/11/23 14:54:50;;;;;;;;;1.33;1.33;;;;;26.59;41.50;99782.22;5047359;28;45503;-76
2022/11/23 14:57:17;;;;;;;;;1.67;1.67;;;;;26.58;41.04;99789.53;5040706;28;46416;-75
2022/11/23 14:59:48;;;;;;;;;2.00;2.00;;;;;26.60;41.17;99788.50;5041812;28;45443;-79
2022/11/23 15:02:21;;;;;;;;;1.67;1.67;;;;;26.55;41.80;99789.13;5046184;28;45387;-77
2022/11/23 15:05:05;;;;;;;;;1.67;1.67;;;;;26.61;41.41;99796.47;5037977;28;46146;-78
2022/11/23 15:07:40;;;;;;;;;2.00;2.00;;;;;26.61;41.33;99795.63;5037918;28;45407;-77
2022/11/23 15:10:24;;;;;;;;;5.00;1.67;;;;;26.62;41.55;99800.84;5038061;28;45533;-77
2022/11/23 15:12:49;;;;;;;;;2.67;1.67;;;;;26.60;41.57;99808.38;5042576;28;45705;-79
2022/11/23 15:15:23;;;;;;;;;1.00;1.00;;;;;26.57;41.78;99812.38;5038102;28;48836;-87
2022/11/23 15:17:56;;;;;;;;;3.00;1.00;;;;;26.58;41.85;99829.53;5040887;28;45641;-80
2022/11/23 15:20:27;;;;;;;;;2.00;2.00;;;;;26.55;41.86;99828.09;5043480;28;46050;-85
2022/11/23 15:22:53;;;;;;;;;5.33;2.00;;;;;26.57;41.74;99830.59;5041147;28;45447;-79
2022/11/23 15:25:18;;;;;;;;;3.00;3.00;;;;;26.58;41.53;99845.88;5046271;28;45924;-80
2022/11/23 15:27:47;;;;;;;;;1.67;1.67;;;;;26.56;41.79;99851.50;5041863;28;45490;-85
2022/11/23 15:30:27;;;;;;;;;4.33;1.00;;;;;26.54;42.13;99855.50;5043270;28;45551;-78
2022/11/23 15:32:57;;;;;;;;;1.33;1.33;;;;;26.54;42.25;99855.50;5041477;28;45573;-79
2022/11/23 15:35:28;;;;;;;;;3.00;2.00;;;;;26.56;41.54;99865.13;5038051;28;45547;-88
2022/11/23 15:37:54;;;;;;;;;3.33;1.33;;;;;26.55;41.96;99866.19;5043272;28;45333;-84
2022/11/23 15:40:22;;;;;;;;;2.67;2.00;;;;;26.64;41.64;99869.50;5043581;28;45410;-76
2022/11/23 15:42:50;;;;;;;;;5.00;2.00;;;;;26.66;41.63;99864.72;5042993;28;45922;-78
2022/11/23 15:45:34;;;;;;;;;5.00;4.00;;;;;26.61;41.44;99869.94;5038358;28;46050;-78
2022/11/23 15:48:02;;;;;;;;;5.00;3.33;;;;;26.53;41.53;99865.53;5045447;28;45728;-78
2022/11/23 15:50:28;;;;;;;;;4.67;4.67;;;;;26.48;41.55;99870.78;5038765;28;45495;-77
2022/11/23 15:52:53;;;;;;;;;5.33;3.33;;;;;26.46;41.96;99881.03;5040132;28;45369;-78
2022/11/23 15:55:22;;;;;;;;;4.67;3.67;;;;;26.46;42.08;99880.19;5042603;28;46694;-79
2022/11/23 15:57:51;;;;;;;;;4.67;4.67;;;;;26.43;42.04;99893.19;5045960;28;45647;-77
2022/11/23 16:00:22;;;;;;;;;4.33;4.33;;;;;26.42;41.46;99898.81;5043377;28;46054;-77
2022/11/23 16:02:48;;;;;;;;;6.00;4.67;;;;;26.41;42.21;99895.25;5043856;28;45632;-78
2022/11/23 16:05:17;;;;;;;;;4.00;4.00;;;;;26.39;41.68;99900.06;5034135;28;45976;-79
2022/11/23 16:07:57;;;;;;;;;5.00;3.67;;;;;26.36;41.76;99903.19;5045584;28;45542;-80
2022/11/23 16:10:25;;;;;;;;;5.67;4.67;;;;;26.39;41.73;99913.69;5043056;28;45374;-81
2022/11/23 16:12:55;;;;;;;;;5.00;4.00;;;;;26.38;42.25;99928.34;5044315;28;45364;-81
2022/11/23 16:15:43;;;;;;;;;7.00;6.00;;;;;26.37;42.11;99942.97;5049260;28;47158;-79
2022/11/23 16:18:19;;;;;;;;;8.67;5.33;;;;;26.35;42.14;99936.91;5038999;28;45404;-81
2022/11/23 16:20:53;;;;;;;;;7.00;5.33;;;;;26.31;42.19;99933.75;5046602;28;46704;-80
2022/11/23 16:23:24;;;;;;;;;8.00;6.67;;;;;26.32;41.99;99948.19;5049701;28;45719;-77
2022/11/23 16:25:57;;;;;;;;;10.00;8.00;;;;;26.30;41.60;99947.56;5043724;28;46098;-77
2022/11/23 16:28:35;;;;;;;;;7.33;7.33;;;;;26.28;41.53;99957.81;5048356;28;45610;-77
2022/11/23 16:31:01;;;;;;;;;12.33;12.00;;;;;26.26;42.12;99968.06;5043498;28;45423;-83
2022/11/23 16:33:27;;;;;;;;;16.00;9.67;;;;;26.17;41.71;99959.22;5041063;28;45530;-80
2022/11/23 16:35:52;;;;;;;;;12.33;12.33;;;;;26.14;41.18;99967.78;5037997;28;46071;-80
2022/11/23 16:38:18;;;;;;;;;8.00;6.67;;;;;26.12;41.37;99988.91;5044367;28;45514;-79
2022/11/23 16:40:46;;;;;;;;;11.33;10.67;;;;;26.08;41.27;99987.66;5037896;28;45642;-80
2022/11/23 16:43:13;;;;;;;;;13.00;12.67;;;;;26.03;41.79;99993.69;5043010;28;45848;-80
2022/11/23 16:45:41;;;;;;;;;7.67;7.67;;;;;25.99;41.26;99997.88;5035283;28;46262;-81
2022/11/23 16:48:24;;;;;;;;;10.67;9.00;;;;;26.02;41.37;100008.31;5037816;28;47131;-78
2022/11/23 16:50:51;;;;;;;;;7.33;6.33;;;;;25.99;41.78;100004.13;5041286;28;45577;-81
2022/11/23 16:53:18;;;;;;;;;11.00;8.00;;;;;26.01;41.28;100023.81;5038235;28;47343;-80
2022/11/23 16:55:46;;;;;;;;;10.33;9.67;;;;;26.02;41.28;100009.16;5040296;28;45395;-79
2022/11/23 16:58:14;;;;;;;;;8.00;8.00;;;;;26.01;41.33;100026.53;5040320;28;45461;-79
2022/11/23 17:00:40;;;;;;;;;10.00;9.00;;;;;26.04;41.37;100028.81;5041983;28;45442;-78
2022/11/23 17:03:05;;;;;;;;;10.00;8.33;;;;;26.03;41.58;100035.31;5038861;28;45565;-78
2022/11/23 17:05:30;;;;;;;;;8.33;8.33;;;;;26.05;41.39;100046.00;5044647;28;47841;-82
2022/11/23 17:07:56;;;;;;;;;6.33;5.67;;;;;26.05;41.53;100049.56;5035446;28;52995;-80
2022/11/23 17:10:21;;;;;;;;;11.00;9.00;;;;;26.07;41.46;100049.34;5043295;28;45418;-81
2022/11/23 17:12:52;;;;;;;;;14.00;10.00;;;;;26.04;41.66;100047.03;5041559;28;45498;-81
2022/11/23 17:15:20;;;;;;;;;8.67;8.67;;;;;26.07;41.63;100062.09;5043862;28;46249;-76
2022/11/23 17:17:45;;;;;;;;;11.67;9.00;;;;;26.03;41.84;100062.50;5050683;28;45423;-78
2022/11/23 17:20:15;;;;;;;;;10.67;9.67;;;;;26.02;41.56;100066.28;5051158;28;59634;-82
2022/11/23 17:22:40;;;;;;;;;8.00;8.00;;;;;26.09;41.92;100076.31;5055700;28;45494;-82
2022/11/23 17:25:07;;;;;;;;;8.67;6.67;;;;;26.13;41.41;100080.31;5050636;28;45344;-81
2022/11/23 17:27:34;;;;;;;;;8.33;8.33;;;;;26.16;42.03;100079.94;5050200;28;45870;-79
2022/11/23 17:30:02;;;;;;;;;10.33;8.00;;;;;26.16;41.30;100088.91;5053043;28;45474;-79
2022/11/23 17:32:28;;;;;;;;;9.00;9.00;;;;;26.14;41.54;100087.44;5047907;28;45467;-78
2022/11/23 17:34:53;;;;;;;;;8.00;7.00;;;;;26.14;41.55;100101.03;5037876;28;45366;-81
2022/11/23 17:37:21;;;;;;;;;9.33;7.67;;;;;26.13;41.54;100104.81;5043127;28;45431;-81
2022/11/23 17:39:48;;;;;;;;;8.67;8.67;;;;;26.10;41.68;100110.63;5045425;28;45776;-77
2022/11/23 17:42:14;;;;;;;;;10.00;10.00;;;;;26.09;41.82;100109.81;5048992;28;45876;-81
2022/11/23 17:44:39;;;;;;;;;10.67;7.00;;;;;26.07;41.40;100113.78;5049100;28;45530;-79
2022/11/23 17:47:13;;;;;;;;;8.67;6.00;;;;;26.05;41.54;100122.97;5047860;28;45778;-84
2022/11/23 17:49:39;;;;;;;;;8.33;6.00;;;;;26.05;41.80;100128.41;5052245;28;45451;-81
2022/11/23 17:52:04;;;;;;;;;13.67;9.00;;;;;26.03;41.37;100129.63;5048810;28;45426;-81
2022/11/23 17:54:29;;;;;;;;;13.00;10.00;;;;;26.03;41.39;100124.19;5048790;28;45838;-77
2022/11/23 17:56:56;;;;;;;;;7.00;7.00;;;;;26.02;41.87;100128.81;5050793;28;45731;-78
2022/11/23 17:59:22;;;;;;;;;9.00;6.33;;;;;26.04;42.03;100136.78;5051705;28;45418;-86
2022/11/23 18:01:47;;;;;;;;;7.67;7.67;;;;;26.05;41.78;100135.72;5052825;28;45469;-88
2022/11/23 18:04:13;;;;;;;;;8.67;6.67;;;;;26.03;41.67;100137.78;5046621;28;45885;-85
2022/11/23 18:06:38;;;;;;;;;8.00;7.33;;;;;26.03;41.63;100143.22;5048182;28;50448;-82
2022/11/23 18:09:04;;;;;;;;;7.33;7.00;;;;;26.03;42.11;100140.50;5051081;28;45436;-80
2022/11/23 18:11:29;;;;;;;;;8.00;7.67;;;;;26.04;42.03;100153.09;5049192;28;45416;-80
2022/11/23 18:13:54;;;;;;;;;9.67;9.33;;;;;26.06;41.78;100148.28;5051566;28;46061;-84
2022/11/23 18:16:21;;;;;;;;;5.00;5.00;;;;;26.07;41.84;100152.66;5049413;28;45638;-82